createdAt,value
2023-01-27T00:01:46.632Z,3.60
2023-01-27T00:04:48.863Z,3.10
2023-01-27T00:07:50.965Z,3.50
2023-01-27T00:11:17.134Z,3.78
2023-01-27T00:14:18.897Z,2.67
2023-01-27T00:17:20.864Z,3.95
2023-01-27T00:20:43.351Z,4.00
2023-01-27T00:24:03.888Z,3.90
2023-01-27T00:27:09.164Z,3.63
2023-01-27T00:30:13.352Z,3.83
2023-01-27T00:33:29.913Z,3.25
2023-01-27T00:36:31.968Z,3.65
2023-01-27T00:39:34.767Z,2.95
2023-01-27T00:42:36.827Z,3.17
2023-01-27T00:45:51.354Z,3.20
2023-01-27T00:48:53.535Z,3.35
2023-01-27T00:51:55.431Z,2.83
2023-01-27T00:54:57.305Z,3.20
2023-01-27T00:57:59.277Z,2.72
2023-01-27T01:01:03.827Z,3.10
2023-01-27T01:04:05.825Z,2.60
2023-01-27T01:07:07.885Z,2.97
2023-01-27T01:10:10.673Z,3.30
2023-01-27T01:13:12.909Z,3.03
2023-01-27T01:16:20.938Z,3.90
2023-01-27T01:19:23.270Z,2.88
2023-01-27T01:22:25.226Z,3.20
2023-01-27T01:25:27.112Z,3.47
2023-01-27T01:28:29.390Z,3.17
2023-01-27T01:31:31.413Z,2.63
2023-01-27T01:34:33.485Z,2.95
2023-01-27T01:37:35.539Z,2.17
2023-01-27T01:40:44.432Z,2.55
2023-01-27T01:43:46.347Z,3.00
2023-01-27T01:46:48.451Z,2.85
2023-01-27T01:49:50.563Z,2.53
2023-01-27T01:52:54.380Z,3.03
2023-01-27T01:56:01.071Z,2.63
2023-01-27T01:59:11.721Z,2.92
2023-01-27T02:02:19.113Z,2.83
2023-01-27T02:05:27.533Z,2.28
2023-01-27T02:08:34.112Z,2.63
2023-01-27T02:11:36.028Z,2.50
2023-01-27T02:14:40.027Z,2.80
2023-01-27T02:17:42.249Z,2.72
2023-01-27T02:20:47.249Z,3.13
2023-01-27T02:23:56.962Z,3.15
2023-01-27T02:26:58.883Z,2.70
2023-01-27T02:30:01.162Z,3.05
2023-01-27T02:33:03.382Z,2.72
2023-01-27T02:36:15.044Z,2.67
2023-01-27T02:39:19.969Z,2.97
2023-01-27T02:42:22.604Z,5.60
2023-01-27T02:45:25.033Z,6.70
2023-01-27T02:48:27.086Z,4.20
2023-01-27T02:51:29.394Z,3.80
2023-01-27T02:54:31.485Z,3.33
2023-01-27T02:57:33.522Z,4.18
2023-01-27T03:00:35.588Z,4.32
2023-01-27T03:03:44.309Z,4.47
2023-01-27T03:06:46.309Z,6.40
2023-01-27T03:09:48.556Z,8.35
2023-01-27T03:12:50.461Z,6.55
2023-01-27T03:16:12.752Z,4.57
2023-01-27T03:19:16.120Z,4.60
2023-01-27T03:22:18.113Z,5.13
2023-01-27T03:25:20.116Z,4.10
2023-01-27T03:28:22.576Z,4.28
2023-01-27T03:31:25.059Z,4.68
2023-01-27T03:34:27.171Z,4.68
2023-01-27T03:37:48.596Z,4.43
2023-01-27T03:41:09.372Z,4.60
2023-01-27T03:44:29.853Z,4.30
2023-01-27T03:47:31.954Z,5.47
2023-01-27T03:50:43.237Z,4.50
2023-01-27T03:53:45.663Z,4.30
2023-01-27T03:56:48.163Z,4.87
2023-01-27T03:59:50.260Z,5.90
2023-01-27T04:03:10.775Z,5.22
2023-01-27T04:06:33.571Z,5.43
2023-01-27T04:09:36.970Z,5.05
2023-01-27T04:12:39.255Z,5.32
2023-01-27T04:15:41.308Z,5.55
2023-01-27T04:18:43.978Z,6.32
2023-01-27T04:21:46.936Z,8.07
2023-01-27T04:24:48.895Z,7.20
2023-01-27T04:27:50.952Z,6.72
2023-01-27T04:30:53.050Z,7.38
2023-01-27T04:33:55.119Z,8.55
2023-01-27T04:36:57.425Z,8.55
2023-01-27T04:39:59.450Z,9.20
2023-01-27T04:43:01.682Z,9.10
2023-01-27T04:46:04.103Z,9.07
2023-01-27T04:49:07.323Z,9.93
2023-01-27T04:52:09.425Z,9.77
2023-01-27T04:55:12.214Z,9.23
2023-01-27T04:58:15.079Z,9.35
2023-01-27T05:01:17.127Z,10.80
2023-01-27T05:04:19.129Z,14.70
2023-01-27T05:07:21.092Z,17.48
2023-01-27T05:10:23.253Z,23.20
2023-01-27T05:13:25.387Z,19.17
2023-01-27T05:16:27.836Z,17.63
2023-01-27T05:19:30.081Z,18.17
2023-01-27T05:22:32.288Z,17.45
2023-01-27T05:25:34.140Z,18.88
2023-01-27T05:28:38.880Z,21.17
2023-01-27T05:31:41.100Z,21.15
2023-01-27T05:34:46.156Z,21.17
2023-01-27T05:37:48.185Z,22.98
2023-01-27T05:40:50.449Z,22.02
2023-01-27T05:43:54.370Z,21.40
2023-01-27T05:46:56.510Z,21.02
2023-01-27T05:49:58.859Z,19.88
2023-01-27T05:53:00.869Z,19.08
2023-01-27T05:56:04.210Z,17.27
2023-01-27T06:02:08.189Z,17.25
2023-01-27T06:05:10.396Z,14.95
2023-01-27T06:08:12.485Z,14.13
2023-01-27T06:11:16.592Z,11.57
2023-01-27T06:14:19.666Z,9.63
2023-01-27T06:17:21.582Z,9.23
2023-01-27T06:20:23.710Z,8.63
2023-01-27T06:23:25.938Z,9.13
2023-01-27T06:26:27.870Z,8.20
2023-01-27T06:29:30.312Z,8.18
2023-01-27T06:32:32.294Z,8.53
2023-01-27T06:35:35.691Z,8.25
2023-01-27T06:41:40.018Z,7.85
2023-01-27T06:44:41.899Z,8.50
2023-01-27T06:47:44.067Z,8.32
2023-01-27T06:50:46.247Z,9.40
2023-01-27T06:53:48.134Z,8.75
2023-01-27T06:56:50.372Z,7.82
2023-01-27T06:59:54.701Z,7.80
2023-01-27T07:02:57.743Z,8.55
2023-01-27T07:05:59.619Z,8.65
2023-01-27T07:09:01.626Z,8.98
2023-01-27T07:12:03.730Z,9.55
2023-01-27T07:15:07.972Z,9.10
2023-01-27T07:18:12.284Z,9.50
2023-01-27T07:21:14.264Z,8.82
2023-01-27T07:24:16.370Z,9.13
2023-01-27T07:27:20.920Z,9.63
2023-01-27T07:33:32.813Z,8.88
2023-01-27T07:36:34.723Z,9.88
2023-01-27T07:39:43.067Z,9.93
2023-01-27T07:42:45.230Z,9.55
2023-01-27T07:45:49.175Z,10.25
2023-01-27T07:48:51.470Z,10.10
2023-01-27T07:51:54.319Z,10.75
2023-01-27T07:54:56.185Z,10.40
2023-01-27T07:57:58.634Z,10.13
2023-01-27T08:01:04.549Z,10.90
2023-01-27T08:04:06.601Z,10.68
2023-01-27T08:07:08.449Z,10.35
2023-01-27T08:10:11.487Z,10.75
2023-01-27T08:13:16.768Z,10.30
2023-01-27T08:16:19.039Z,10.70
2023-01-27T08:19:21.012Z,11.20
2023-01-27T08:22:23.113Z,10.10
2023-01-27T08:25:25.274Z,10.55
2023-01-27T08:28:28.492Z,10.50
2023-01-27T08:31:32.400Z,10.55
2023-01-27T08:34:34.844Z,9.55
2023-01-27T08:37:36.780Z,10.90
2023-01-27T08:40:42.988Z,11.43
2023-01-27T08:43:54.826Z,11.13
2023-01-27T08:46:56.817Z,11.40
2023-01-27T08:49:58.685Z,10.43
2023-01-27T08:53:01.689Z,12.07
2023-01-27T08:56:06.733Z,10.73
2023-01-27T08:59:08.614Z,11.13
2023-01-27T09:02:14.107Z,10.48
2023-01-27T09:05:22.490Z,10.48
2023-01-27T09:08:32.055Z,10.93
2023-01-27T09:11:34.575Z,9.68
2023-01-27T09:14:36.565Z,9.03
2023-01-27T09:17:38.557Z,10.98
2023-01-27T09:20:43.646Z,10.85
2023-01-27T09:23:49.024Z,10.70
2023-01-27T09:26:57.125Z,10.02
2023-01-27T09:29:59.598Z,10.80
2023-01-27T09:33:02.433Z,10.30
2023-01-27T09:36:22.757Z,10.57
2023-01-27T09:39:25.571Z,10.75
2023-01-27T09:42:27.445Z,12.02
2023-01-27T09:45:53.294Z,103.57
2023-01-27T09:49:20.305Z,27.25
2023-01-27T09:52:48.367Z,56.22
2023-01-27T09:56:42.612Z,41.08
2023-01-27T10:00:02.051Z,15.45
2023-01-27T10:03:11.899Z,18.02
2023-01-27T10:06:50.630Z,13.27
2023-01-27T10:10:15.000Z,15.35
2023-01-27T10:13:28.128Z,91.78
2023-01-27T10:16:38.748Z,266.35
2023-01-27T10:20:18.172Z,41.28
2023-01-27T10:23:23.350Z,15.60
2023-01-27T10:26:32.090Z,13.27
2023-01-27T10:44:54.401Z,12.70
2023-01-27T11:00:36.989Z,14.95
2023-01-27T13:28:10.075Z,28.77
2023-01-27T13:47:13.220Z,13.93
2023-01-27T13:59:08.453Z,47.17
2023-01-27T17:27:18.257Z,18.83
2023-01-27T17:30:26.600Z,18.20
2023-01-27T17:33:31.239Z,20.60
2023-01-27T17:36:33.277Z,9.23
2023-01-27T17:39:38.984Z,48.53
2023-01-27T17:42:42.720Z,131.43
2023-01-27T17:45:45.176Z,155.63
2023-01-27T17:51:55.806Z,183.45
2023-01-27T17:56:00.963Z,153.95
2023-01-27T18:02:34.381Z,102.90
2023-01-27T18:05:38.418Z,50.55
2023-01-27T18:08:49.097Z,87.68
2023-01-27T18:12:24.973Z,31.17
2023-01-27T18:15:55.461Z,47.70
2023-01-27T18:19:48.213Z,50.42
2023-01-27T18:23:10.076Z,18.40
2023-01-27T18:30:03.320Z,27.73
2023-01-27T18:54:01.118Z,16.52
2023-01-27T19:09:48.887Z,14.88
2023-01-27T19:13:21.825Z,17.08
2023-01-27T19:26:33.489Z,24.35
2023-01-27T21:31:16.021Z,4.97
2023-01-27T21:34:38.873Z,5.15
2023-01-27T21:50:04.580Z,5.93
2023-01-27T21:56:56.445Z,5.47
2023-01-27T21:59:49.569Z,5.35
2023-01-27T22:02:57.225Z,5.35
2023-01-27T22:05:59.063Z,5.40
2023-01-27T22:09:06.898Z,5.10
2023-01-27T22:12:11.359Z,4.65
2023-01-27T22:15:17.044Z,5.32
2023-01-27T22:46:32.378Z,5.18
2023-01-27T22:56:52.158Z,4.78
2023-01-27T23:00:23.623Z,6.00
2023-01-27T23:03:37.813Z,5.10
2023-01-27T23:06:39.665Z,7.20
2023-01-27T23:17:31.395Z,6.00
2023-01-27T23:20:33.722Z,5.65
2023-01-27T23:23:36.160Z,5.70
2023-01-27T23:26:37.941Z,6.73
2023-01-27T23:29:39.950Z,5.45
2023-01-27T23:32:45.843Z,5.70
2023-01-27T23:35:48.321Z,6.22
2023-01-27T23:38:50.220Z,5.97
2023-01-27T23:42:07.698Z,5.82
2023-01-27T23:45:10.442Z,6.40
2023-01-27T23:48:12.448Z,7.35
2023-01-27T23:51:14.418Z,5.88
2023-01-27T23:54:16.274Z,5.93
2023-01-27T23:57:18.474Z,7.03
